sensor_id;sensor_type;location;lat;lon;timestamp;temperature;humidity
16958;DHT22;8595;52.542;11.974;2023-02-15T00:01:24;2.60;99.90
16958;DHT22;8595;52.542;11.974;2023-02-15T00:03:52;2.60;99.90
16958;DHT22;8595;52.542;11.974;2023-02-15T00:06:19;2.60;99.90
16958;DHT22;8595;52.542;11.974;2023-02-15T00:08:45;2.60;99.90
16958;DHT22;8595;52.542;11.974;2023-02-15T00:11:14;2.60;99.90
16958;DHT22;8595;52.542;11.974;2023-02-15T00:13:41;2.80;99.90
16958;DHT22;8595;52.542;11.974;2023-02-15T00:16:09;2.80;99.90
16958;DHT22;8595;52.542;11.974;2023-02-15T00:18:37;2.80;99.90
16958;DHT22;8595;52.542;11.974;2023-02-15T00:21:06;2.80;99.90
16958;DHT22;8595;52.542;11.974;2023-02-15T00:23:34;2.80;99.90
16958;DHT22;8595;52.542;11.974;2023-02-15T00:26:05;2.70;99.90
16958;DHT22;8595;52.542;11.974;2023-02-15T00:28:32;2.80;99.90
16958;DHT22;8595;52.542;11.974;2023-02-15T00:31:04;2.80;99.90
16958;DHT22;8595;52.542;11.974;2023-02-15T00:33:30;2.80;99.90
16958;DHT22;8595;52.542;11.974;2023-02-15T00:35:57;2.80;99.90
16958;DHT22;8595;52.542;11.974;2023-02-15T00:38:26;2.70;99.90
16958;DHT22;8595;52.542;11.974;2023-02-15T00:40:56;2.60;99.90
16958;DHT22;8595;52.542;11.974;2023-02-15T00:43:24;2.60;99.90
16958;DHT22;8595;52.542;11.974;2023-02-15T00:45:51;2.60;99.90
16958;DHT22;8595;52.542;11.974;2023-02-15T00:48:18;2.50;99.90
16958;DHT22;8595;52.542;11.974;2023-02-15T00:50:45;2.60;99.90
16958;DHT22;8595;52.542;11.974;2023-02-15T00:53:12;2.50;99.90
16958;DHT22;8595;52.542;11.974;2023-02-15T00:55:40;2.40;99.90
16958;DHT22;8595;52.542;11.974;2023-02-15T00:58:07;2.50;99.90
16958;DHT22;8595;52.542;11.974;2023-02-15T01:00:34;2.30;99.90
16958;DHT22;8595;52.542;11.974;2023-02-15T01:03:02;2.40;99.90
16958;DHT22;8595;52.542;11.974;2023-02-15T01:05:30;2.10;99.90
16958;DHT22;8595;52.542;11.974;2023-02-15T01:07:58;2.20;99.90
16958;DHT22;8595;52.542;11.974;2023-02-15T01:10:25;2.20;99.90
16958;DHT22;8595;52.542;11.974;2023-02-15T01:12:54;2.10;99.90
16958;DHT22;8595;52.542;11.974;2023-02-15T01:15:22;2.00;99.90
16958;DHT22;8595;52.542;11.974;2023-02-15T01:17:49;1.90;99.90
16958;DHT22;8595;52.542;11.974;2023-02-15T01:20:19;1.90;99.90
16958;DHT22;8595;52.542;11.974;2023-02-15T01:22:46;1.90;99.90
16958;DHT22;8595;52.542;11.974;2023-02-15T01:25:15;1.80;99.90
16958;DHT22;8595;52.542;11.974;2023-02-15T01:27:42;1.70;99.90
16958;DHT22;8595;52.542;11.974;2023-02-15T01:30:11;1.70;99.90
16958;DHT22;8595;52.542;11.974;2023-02-15T01:32:39;1.70;99.90
16958;DHT22;8595;52.542;11.974;2023-02-15T01:35:06;1.70;99.90
16958;DHT22;8595;52.542;11.974;2023-02-15T01:37:33;1.60;99.90
16958;DHT22;8595;52.542;11.974;2023-02-15T01:40:01;1.60;99.90
16958;DHT22;8595;52.542;11.974;2023-02-15T01:42:28;1.70;99.90
16958;DHT22;8595;52.542;11.974;2023-02-15T01:44:57;1.70;99.90
16958;DHT22;8595;52.542;11.974;2023-02-15T01:47:32;1.70;99.90
16958;DHT22;8595;52.542;11.974;2023-02-15T01:50:06;1.70;99.90
16958;DHT22;8595;52.542;11.974;2023-02-15T01:52:37;1.60;99.90
16958;DHT22;8595;52.542;11.974;2023-02-15T01:55:05;1.50;99.90
16958;DHT22;8595;52.542;11.974;2023-02-15T01:57:32;1.50;99.90
16958;DHT22;8595;52.542;11.974;2023-02-15T02:00:03;1.50;99.90
16958;DHT22;8595;52.542;11.974;2023-02-15T02:02:32;1.40;99.90
16958;DHT22;8595;52.542;11.974;2023-02-15T02:05:00;1.40;99.90
16958;DHT22;8595;52.542;11.974;2023-02-15T02:07:34;1.40;99.90
16958;DHT22;8595;52.542;11.974;2023-02-15T02:10:02;1.40;99.90
16958;DHT22;8595;52.542;11.974;2023-02-15T02:12:29;1.50;99.90
16958;DHT22;8595;52.542;11.974;2023-02-15T02:14:57;1.60;99.90
16958;DHT22;8595;52.542;11.974;2023-02-15T02:17:33;1.60;99.90
16958;DHT22;8595;52.542;11.974;2023-02-15T02:20:23;1.70;99.90
16958;DHT22;8595;52.542;11.974;2023-02-15T02:23:05;1.70;99.90
16958;DHT22;8595;52.542;11.974;2023-02-15T02:26:16;1.80;99.90
16958;DHT22;8595;52.542;11.974;2023-02-15T02:32:04;1.70;99.90
16958;DHT22;8595;52.542;11.974;2023-02-15T02:34:40;1.60;99.90
16958;DHT22;8595;52.542;11.974;2023-02-15T02:37:16;1.60;99.90
16958;DHT22;8595;52.542;11.974;2023-02-15T02:39:51;1.50;99.90
16958;DHT22;8595;52.542;11.974;2023-02-15T02:42:27;1.50;99.90
16958;DHT22;8595;52.542;11.974;2023-02-15T02:45:00;1.40;99.90
16958;DHT22;8595;52.542;11.974;2023-02-15T02:47:32;1.40;99.90
16958;DHT22;8595;52.542;11.974;2023-02-15T02:50:03;1.40;99.90
16958;DHT22;8595;52.542;11.974;2023-02-15T02:52:37;1.50;99.90
16958;DHT22;8595;52.542;11.974;2023-02-15T02:55:07;1.50;99.90
16958;DHT22;8595;52.542;11.974;2023-02-15T02:57:37;1.50;99.90
16958;DHT22;8595;52.542;11.974;2023-02-15T03:00:08;1.50;99.90
16958;DHT22;8595;52.542;11.974;2023-02-15T03:02:38;1.50;99.90
16958;DHT22;8595;52.542;11.974;2023-02-15T03:05:12;1.50;99.90
16958;DHT22;8595;52.542;11.974;2023-02-15T03:07:41;1.50;99.90
16958;DHT22;8595;52.542;11.974;2023-02-15T03:10:09;1.60;99.90
16958;DHT22;8595;52.542;11.974;2023-02-15T03:12:39;1.50;99.90
16958;DHT22;8595;52.542;11.974;2023-02-15T03:15:10;1.40;99.90
16958;DHT22;8595;52.542;11.974;2023-02-15T03:17:41;1.30;99.90
16958;DHT22;8595;52.542;11.974;2023-02-15T03:20:14;1.30;99.90
16958;DHT22;8595;52.542;11.974;2023-02-15T03:22:46;1.30;99.90
16958;DHT22;8595;52.542;11.974;2023-02-15T03:25:18;1.30;99.90
16958;DHT22;8595;52.542;11.974;2023-02-15T03:27:49;1.30;99.90
16958;DHT22;8595;52.542;11.974;2023-02-15T03:30:18;1.30;99.90
16958;DHT22;8595;52.542;11.974;2023-02-15T03:32:47;1.20;99.90
16958;DHT22;8595;52.542;11.974;2023-02-15T03:35:19;1.30;99.90
16958;DHT22;8595;52.542;11.974;2023-02-15T03:37:51;1.20;99.90
16958;DHT22;8595;52.542;11.974;2023-02-15T03:40:23;1.20;99.90
16958;DHT22;8595;52.542;11.974;2023-02-15T03:43:12;1.10;99.90
16958;DHT22;8595;52.542;11.974;2023-02-15T03:45:45;1.20;99.90
16958;DHT22;8595;52.542;11.974;2023-02-15T03:48:22;1.20;99.90
16958;DHT22;8595;52.542;11.974;2023-02-15T03:50:52;1.20;99.90
16958;DHT22;8595;52.542;11.974;2023-02-15T03:53:38;1.20;99.90
16958;DHT22;8595;52.542;11.974;2023-02-15T03:56:05;1.20;99.90
16958;DHT22;8595;52.542;11.974;2023-02-15T03:58:32;1.20;99.90
16958;DHT22;8595;52.542;11.974;2023-02-15T04:01:21;1.30;99.90
16958;DHT22;8595;52.542;11.974;2023-02-15T04:04:26;1.30;99.90
16958;DHT22;8595;52.542;11.974;2023-02-15T04:06:56;1.30;99.90
16958;DHT22;8595;52.542;11.974;2023-02-15T04:09:23;1.40;99.90
16958;DHT22;8595;52.542;11.974;2023-02-15T04:12:07;1.40;99.90
16958;DHT22;8595;52.542;11.974;2023-02-15T04:14:34;1.40;99.90
16958;DHT22;8595;52.542;11.974;2023-02-15T04:17:18;1.30;99.90
16958;DHT22;8595;52.542;11.974;2023-02-15T04:19:45;1.30;99.90
16958;DHT22;8595;52.542;11.974;2023-02-15T04:22:30;1.40;99.90
16958;DHT22;8595;52.542;11.974;2023-02-15T04:25:15;1.30;99.90
16958;DHT22;8595;52.542;11.974;2023-02-15T04:27:43;1.20;99.90
16958;DHT22;8595;52.542;11.974;2023-02-15T04:30:12;1.20;99.90
16958;DHT22;8595;52.542;11.974;2023-02-15T04:32:40;1.20;99.90
16958;DHT22;8595;52.542;11.974;2023-02-15T04:35:07;1.20;99.90
16958;DHT22;8595;52.542;11.974;2023-02-15T04:37:36;1.30;99.90
16958;DHT22;8595;52.542;11.974;2023-02-15T04:40:03;1.30;99.90
16958;DHT22;8595;52.542;11.974;2023-02-15T04:42:30;1.30;99.90
16958;DHT22;8595;52.542;11.974;2023-02-15T04:44:57;1.10;99.90
16958;DHT22;8595;52.542;11.974;2023-02-15T04:47:23;1.30;99.90
16958;DHT22;8595;52.542;11.974;2023-02-15T04:49:50;1.20;99.90
16958;DHT22;8595;52.542;11.974;2023-02-15T04:52:17;1.20;99.90
16958;DHT22;8595;52.542;11.974;2023-02-15T04:54:45;1.30;99.90
16958;DHT22;8595;52.542;11.974;2023-02-15T04:57:12;1.30;99.90
16958;DHT22;8595;52.542;11.974;2023-02-15T04:59:39;1.30;99.90
16958;DHT22;8595;52.542;11.974;2023-02-15T05:02:05;1.30;99.90
16958;DHT22;8595;52.542;11.974;2023-02-15T05:04:33;1.30;99.90
16958;DHT22;8595;52.542;11.974;2023-02-15T05:06:59;1.30;99.90
16958;DHT22;8595;52.542;11.974;2023-02-15T05:09:26;1.30;99.90
16958;DHT22;8595;52.542;11.974;2023-02-15T05:11:54;1.40;99.90
16958;DHT22;8595;52.542;11.974;2023-02-15T05:14:21;1.40;99.90
16958;DHT22;8595;52.542;11.974;2023-02-15T05:16:48;1.40;99.90
16958;DHT22;8595;52.542;11.974;2023-02-15T05:19:15;1.30;99.90
16958;DHT22;8595;52.542;11.974;2023-02-15T05:21:41;1.30;99.90
16958;DHT22;8595;52.542;11.974;2023-02-15T05:24:08;1.30;99.90
16958;DHT22;8595;52.542;11.974;2023-02-15T05:26:50;1.20;99.90
16958;DHT22;8595;52.542;11.974;2023-02-15T05:29:37;1.20;99.90
16958;DHT22;8595;52.542;11.974;2023-02-15T05:32:04;1.20;99.90
16958;DHT22;8595;52.542;11.974;2023-02-15T05:34:30;1.20;99.90
16958;DHT22;8595;52.542;11.974;2023-02-15T05:36:57;1.40;99.90
16958;DHT22;8595;52.542;11.974;2023-02-15T05:39:23;1.20;99.90
16958;DHT22;8595;52.542;11.974;2023-02-15T05:41:50;1.20;99.90
16958;DHT22;8595;52.542;11.974;2023-02-15T05:44:17;1.20;99.90
16958;DHT22;8595;52.542;11.974;2023-02-15T05:46:48;1.30;99.90
16958;DHT22;8595;52.542;11.974;2023-02-15T05:49:14;1.30;99.90
16958;DHT22;8595;52.542;11.974;2023-02-15T05:51:41;1.30;99.90
16958;DHT22;8595;52.542;11.974;2023-02-15T05:54:09;1.30;99.90
16958;DHT22;8595;52.542;11.974;2023-02-15T05:56:35;1.30;99.90
16958;DHT22;8595;52.542;11.974;2023-02-15T05:59:02;1.30;99.90
16958;DHT22;8595;52.542;11.974;2023-02-15T06:01:29;1.30;99.90
16958;DHT22;8595;52.542;11.974;2023-02-15T06:03:57;1.20;99.90
16958;DHT22;8595;52.542;11.974;2023-02-15T06:06:23;1.10;99.90
16958;DHT22;8595;52.542;11.974;2023-02-15T06:08:50;1.00;99.90
16958;DHT22;8595;52.542;11.974;2023-02-15T06:11:17;0.90;99.90
16958;DHT22;8595;52.542;11.974;2023-02-15T06:13:43;0.90;99.90
16958;DHT22;8595;52.542;11.974;2023-02-15T06:16:10;0.80;99.90
16958;DHT22;8595;52.542;11.974;2023-02-15T06:18:36;0.90;99.90
16958;DHT22;8595;52.542;11.974;2023-02-15T06:21:05;0.90;99.90
16958;DHT22;8595;52.542;11.974;2023-02-15T06:23:31;0.80;99.90
16958;DHT22;8595;52.542;11.974;2023-02-15T06:25:58;0.60;99.90
16958;DHT22;8595;52.542;11.974;2023-02-15T06:28:24;0.60;99.90
16958;DHT22;8595;52.542;11.974;2023-02-15T06:30:51;0.70;99.90
16958;DHT22;8595;52.542;11.974;2023-02-15T06:33:18;0.70;99.90
16958;DHT22;8595;52.542;11.974;2023-02-15T06:35:45;0.70;99.90
16958;DHT22;8595;52.542;11.974;2023-02-15T06:38:13;0.70;99.90
16958;DHT22;8595;52.542;11.974;2023-02-15T06:40:40;0.70;99.90
16958;DHT22;8595;52.542;11.974;2023-02-15T06:43:06;0.60;99.90
16958;DHT22;8595;52.542;11.974;2023-02-15T06:45:33;0.60;99.90
16958;DHT22;8595;52.542;11.974;2023-02-15T06:48:00;0.70;99.90
16958;DHT22;8595;52.542;11.974;2023-02-15T06:50:27;0.60;99.90
16958;DHT22;8595;52.542;11.974;2023-02-15T06:52:56;0.70;99.90
16958;DHT22;8595;52.542;11.974;2023-02-15T06:55:24;0.60;99.90
16958;DHT22;8595;52.542;11.974;2023-02-15T06:57:51;0.60;99.90
16958;DHT22;8595;52.542;11.974;2023-02-15T07:00:18;0.50;99.90
16958;DHT22;8595;52.542;11.974;2023-02-15T07:02:45;0.50;99.90
16958;DHT22;8595;52.542;11.974;2023-02-15T07:05:11;0.60;99.90
16958;DHT22;8595;52.542;11.974;2023-02-15T07:07:38;0.60;99.90
16958;DHT22;8595;52.542;11.974;2023-02-15T07:10:06;0.60;99.90
16958;DHT22;8595;52.542;11.974;2023-02-15T07:12:34;0.60;99.90
16958;DHT22;8595;52.542;11.974;2023-02-15T07:15:11;0.70;99.90
16958;DHT22;8595;52.542;11.974;2023-02-15T07:17:39;0.80;99.90
16958;DHT22;8595;52.542;11.974;2023-02-15T07:20:07;0.70;99.90
16958;DHT22;8595;52.542;11.974;2023-02-15T07:22:36;0.80;99.90
16958;DHT22;8595;52.542;11.974;2023-02-15T07:25:03;0.90;99.90
16958;DHT22;8595;52.542;11.974;2023-02-15T07:27:30;0.90;99.90
16958;DHT22;8595;52.542;11.974;2023-02-15T07:29:59;0.80;99.90
16958;DHT22;8595;52.542;11.974;2023-02-15T07:32:28;0.70;99.90
16958;DHT22;8595;52.542;11.974;2023-02-15T07:34:56;0.70;99.90
16958;DHT22;8595;52.542;11.974;2023-02-15T07:37:23;0.70;99.90
16958;DHT22;8595;52.542;11.974;2023-02-15T07:39:50;0.70;99.90
16958;DHT22;8595;52.542;11.974;2023-02-15T07:42:17;0.70;99.90
16958;DHT22;8595;52.542;11.974;2023-02-15T07:44:45;0.70;99.90
16958;DHT22;8595;52.542;11.974;2023-02-15T07:47:13;0.60;99.90
16958;DHT22;8595;52.542;11.974;2023-02-15T07:49:39;0.60;99.90
16958;DHT22;8595;52.542;11.974;2023-02-15T07:52:06;0.50;99.90
16958;DHT22;8595;52.542;11.974;2023-02-15T07:54:33;0.60;99.90
16958;DHT22;8595;52.542;11.974;2023-02-15T07:57:00;0.60;99.90
16958;DHT22;8595;52.542;11.974;2023-02-15T07:59:27;0.60;99.90
16958;DHT22;8595;52.542;11.974;2023-02-15T08:01:54;0.60;99.90
16958;DHT22;8595;52.542;11.974;2023-02-15T08:04:23;0.70;99.90
16958;DHT22;8595;52.542;11.974;2023-02-15T08:06:52;0.80;99.90
16958;DHT22;8595;52.542;11.974;2023-02-15T08:09:20;0.80;99.90
16958;DHT22;8595;52.542;11.974;2023-02-15T08:11:47;0.80;99.90
16958;DHT22;8595;52.542;11.974;2023-02-15T08:14:15;1.00;99.90
16958;DHT22;8595;52.542;11.974;2023-02-15T08:16:43;1.00;99.90
16958;DHT22;8595;52.542;11.974;2023-02-15T08:19:11;0.90;99.90
16958;DHT22;8595;52.542;11.974;2023-02-15T08:21:41;0.80;99.90
16958;DHT22;8595;52.542;11.974;2023-02-15T08:24:10;0.90;99.90
16958;DHT22;8595;52.542;11.974;2023-02-15T08:26:38;0.80;99.90
16958;DHT22;8595;52.542;11.974;2023-02-15T08:29:07;0.90;99.90
16958;DHT22;8595;52.542;11.974;2023-02-15T08:31:35;0.80;99.90
16958;DHT22;8595;52.542;11.974;2023-02-15T08:34:03;0.70;99.90
16958;DHT22;8595;52.542;11.974;2023-02-15T08:36:31;0.70;99.90
16958;DHT22;8595;52.542;11.974;2023-02-15T08:39:01;0.80;99.90
16958;DHT22;8595;52.542;11.974;2023-02-15T08:41:29;0.80;99.90
16958;DHT22;8595;52.542;11.974;2023-02-15T08:43:58;0.70;99.90
16958;DHT22;8595;52.542;11.974;2023-02-15T08:46:26;0.70;99.90
16958;DHT22;8595;52.542;11.974;2023-02-15T08:48:53;0.80;99.90
16958;DHT22;8595;52.542;11.974;2023-02-15T08:51:22;0.90;99.90
16958;DHT22;8595;52.542;11.974;2023-02-15T08:53:51;0.80;99.90
16958;DHT22;8595;52.542;11.974;2023-02-15T08:56:20;0.90;99.90
16958;DHT22;8595;52.542;11.974;2023-02-15T08:58:50;1.00;99.90
16958;DHT22;8595;52.542;11.974;2023-02-15T09:01:19;1.00;99.90
16958;DHT22;8595;52.542;11.974;2023-02-15T09:03:48;0.90;99.90
16958;DHT22;8595;52.542;11.974;2023-02-15T09:06:16;1.00;99.90
16958;DHT22;8595;52.542;11.974;2023-02-15T09:08:43;0.90;99.90
16958;DHT22;8595;52.542;11.974;2023-02-15T09:11:11;1.00;99.90
16958;DHT22;8595;52.542;11.974;2023-02-15T09:13:40;1.00;99.90
16958;DHT22;8595;52.542;11.974;2023-02-15T09:16:08;0.90;99.90
16958;DHT22;8595;52.542;11.974;2023-02-15T09:18:37;0.80;99.90
16958;DHT22;8595;52.542;11.974;2023-02-15T09:21:06;0.90;99.90
16958;DHT22;8595;52.542;11.974;2023-02-15T09:23:33;1.00;99.90
16958;DHT22;8595;52.542;11.974;2023-02-15T09:26:05;1.20;99.90
16958;DHT22;8595;52.542;11.974;2023-02-15T09:28:32;1.30;99.90
16958;DHT22;8595;52.542;11.974;2023-02-15T09:31:09;1.20;99.90
16958;DHT22;8595;52.542;11.974;2023-02-15T09:33:37;1.20;99.90
16958;DHT22;8595;52.542;11.974;2023-02-15T09:36:04;1.30;99.90
16958;DHT22;8595;52.542;11.974;2023-02-15T09:38:31;1.40;99.90
16958;DHT22;8595;52.542;11.974;2023-02-15T09:41:10;1.50;99.90
16958;DHT22;8595;52.542;11.974;2023-02-15T09:43:48;1.40;99.90
16958;DHT22;8595;52.542;11.974;2023-02-15T09:46:46;1.40;99.90
16958;DHT22;8595;52.542;11.974;2023-02-15T09:49:26;1.40;99.90
16958;DHT22;8595;52.542;11.974;2023-02-15T09:52:10;1.50;99.90
16958;DHT22;8595;52.542;11.974;2023-02-15T09:54:49;1.60;99.90
16958;DHT22;8595;52.542;11.974;2023-02-15T09:57:26;1.60;99.90
16958;DHT22;8595;52.542;11.974;2023-02-15T10:00:04;1.80;99.90
16958;DHT22;8595;52.542;11.974;2023-02-15T10:02:50;1.70;99.90
16958;DHT22;8595;52.542;11.974;2023-02-15T10:05:28;1.80;99.90
16958;DHT22;8595;52.542;11.974;2023-02-15T10:08:21;1.80;99.90
16958;DHT22;8595;52.542;11.974;2023-02-15T10:10:57;1.90;99.90
16958;DHT22;8595;52.542;11.974;2023-02-15T10:13:49;2.10;99.90
16958;DHT22;8595;52.542;11.974;2023-02-15T10:16:26;2.20;99.90
16958;DHT22;8595;52.542;11.974;2023-02-15T10:19:04;2.20;99.90
16958;DHT22;8595;52.542;11.974;2023-02-15T10:21:43;2.20;99.90
16958;DHT22;8595;52.542;11.974;2023-02-15T10:24:30;2.20;99.90
16958;DHT22;8595;52.542;11.974;2023-02-15T10:27:02;2.40;99.90
16958;DHT22;8595;52.542;11.974;2023-02-15T10:29:35;2.40;99.90
16958;DHT22;8595;52.542;11.974;2023-02-15T10:32:11;2.40;99.90
16958;DHT22;8595;52.542;11.974;2023-02-15T10:34:48;2.40;99.90
16958;DHT22;8595;52.542;11.974;2023-02-15T10:37:41;2.40;99.90
16958;DHT22;8595;52.542;11.974;2023-02-15T10:40:14;2.60;99.90
16958;DHT22;8595;52.542;11.974;2023-02-15T10:42:57;2.70;99.90
16958;DHT22;8595;52.542;11.974;2023-02-15T10:45:34;2.80;99.90
16958;DHT22;8595;52.542;11.974;2023-02-15T10:48:18;2.70;99.90
16958;DHT22;8595;52.542;11.974;2023-02-15T10:50:52;2.70;99.90
16958;DHT22;8595;52.542;11.974;2023-02-15T10:53:37;3.00;99.90
16958;DHT22;8595;52.542;11.974;2023-02-15T10:56:13;3.20;99.90
16958;DHT22;8595;52.542;11.974;2023-02-15T11:01:56;3.20;99.90
16958;DHT22;8595;52.542;11.974;2023-02-15T11:04:41;3.50;99.90
16958;DHT22;8595;52.542;11.974;2023-02-15T11:07:16;3.60;99.90
16958;DHT22;8595;52.542;11.974;2023-02-15T11:09:47;3.60;99.90
16958;DHT22;8595;52.542;11.974;2023-02-15T11:12:18;3.70;99.90
16958;DHT22;8595;52.542;11.974;2023-02-15T11:14:51;3.80;99.90
16958;DHT22;8595;52.542;11.974;2023-02-15T11:17:24;3.90;99.90
16958;DHT22;8595;52.542;11.974;2023-02-15T11:19:58;3.90;99.90
16958;DHT22;8595;52.542;11.974;2023-02-15T11:22:30;3.80;99.90
16958;DHT22;8595;52.542;11.974;2023-02-15T11:25:00;3.80;99.90
16958;DHT22;8595;52.542;11.974;2023-02-15T11:27:31;3.70;99.90
16958;DHT22;8595;52.542;11.974;2023-02-15T11:30:01;3.90;99.90
16958;DHT22;8595;52.542;11.974;2023-02-15T11:32:31;4.10;99.90
16958;DHT22;8595;52.542;11.974;2023-02-15T11:35:10;4.20;99.90
16958;DHT22;8595;52.542;11.974;2023-02-15T11:37:47;4.10;99.90
16958;DHT22;8595;52.542;11.974;2023-02-15T11:40:19;4.00;99.90
16958;DHT22;8595;52.542;11.974;2023-02-15T11:42:48;3.90;99.90
16958;DHT22;8595;52.542;11.974;2023-02-15T11:45:22;3.80;99.90
16958;DHT22;8595;52.542;11.974;2023-02-15T11:47:51;3.90;99.90
16958;DHT22;8595;52.542;11.974;2023-02-15T11:50:21;3.90;99.90
16958;DHT22;8595;52.542;11.974;2023-02-15T11:52:51;3.90;99.90
16958;DHT22;8595;52.542;11.974;2023-02-15T11:55:21;4.00;99.90
16958;DHT22;8595;52.542;11.974;2023-02-15T11:57:52;4.00;99.90
16958;DHT22;8595;52.542;11.974;2023-02-15T12:00:27;4.10;99.90
16958;DHT22;8595;52.542;11.974;2023-02-15T12:03:03;4.10;99.90
16958;DHT22;8595;52.542;11.974;2023-02-15T12:05:32;4.20;99.90
16958;DHT22;8595;52.542;11.974;2023-02-15T12:08:08;4.10;99.90
16958;DHT22;8595;52.542;11.974;2023-02-15T12:10:41;4.10;99.90
16958;DHT22;8595;52.542;11.974;2023-02-15T12:13:12;4.00;99.90
16958;DHT22;8595;52.542;11.974;2023-02-15T12:15:41;4.00;99.90
16958;DHT22;8595;52.542;11.974;2023-02-15T12:18:18;4.00;99.90
16958;DHT22;8595;52.542;11.974;2023-02-15T12:20:46;4.00;99.90
16958;DHT22;8595;52.542;11.974;2023-02-15T12:23:15;4.10;99.90
16958;DHT22;8595;52.542;11.974;2023-02-15T12:25:43;4.20;99.90
16958;DHT22;8595;52.542;11.974;2023-02-15T12:28:24;4.10;99.90
16958;DHT22;8595;52.542;11.974;2023-02-15T12:30:53;4.20;99.90
16958;DHT22;8595;52.542;11.974;2023-02-15T12:33:26;4.40;99.90
16958;DHT22;8595;52.542;11.974;2023-02-15T12:35:57;4.50;99.90
16958;DHT22;8595;52.542;11.974;2023-02-15T12:38:27;4.60;99.90
16958;DHT22;8595;52.542;11.974;2023-02-15T12:40:59;4.70;99.90
16958;DHT22;8595;52.542;11.974;2023-02-15T12:43:29;4.50;99.90
16958;DHT22;8595;52.542;11.974;2023-02-15T12:46:14;4.40;99.90
16958;DHT22;8595;52.542;11.974;2023-02-15T12:48:45;4.40;99.90
16958;DHT22;8595;52.542;11.974;2023-02-15T12:51:15;4.50;99.90
16958;DHT22;8595;52.542;11.974;2023-02-15T12:53:43;4.50;99.90
16958;DHT22;8595;52.542;11.974;2023-02-15T12:56:10;4.60;99.90
16958;DHT22;8595;52.542;11.974;2023-02-15T12:58:38;4.40;99.90
16958;DHT22;8595;52.542;11.974;2023-02-15T13:01:15;4.40;99.90
16958;DHT22;8595;52.542;11.974;2023-02-15T13:04:04;4.40;99.90
16958;DHT22;8595;52.542;11.974;2023-02-15T13:06:33;4.60;99.90
16958;DHT22;8595;52.542;11.974;2023-02-15T13:09:14;4.70;99.90
16958;DHT22;8595;52.542;11.974;2023-02-15T13:11:43;4.60;99.90
16958;DHT22;8595;52.542;11.974;2023-02-15T13:14:17;4.60;99.90
16958;DHT22;8595;52.542;11.974;2023-02-15T13:16:47;4.60;99.90
16958;DHT22;8595;52.542;11.974;2023-02-15T13:19:16;4.60;99.90
16958;DHT22;8595;52.542;11.974;2023-02-15T13:21:45;4.40;99.90
16958;DHT22;8595;52.542;11.974;2023-02-15T13:24:18;4.40;99.90
16958;DHT22;8595;52.542;11.974;2023-02-15T13:26:47;4.30;99.90
16958;DHT22;8595;52.542;11.974;2023-02-15T13:29:18;4.40;99.90
16958;DHT22;8595;52.542;11.974;2023-02-15T13:31:49;4.40;99.90
16958;DHT22;8595;52.542;11.974;2023-02-15T13:34:22;4.40;99.90
16958;DHT22;8595;52.542;11.974;2023-02-15T13:37:06;4.40;99.90
16958;DHT22;8595;52.542;11.974;2023-02-15T13:39:41;4.40;99.90
16958;DHT22;8595;52.542;11.974;2023-02-15T13:42:22;4.30;99.90
16958;DHT22;8595;52.542;11.974;2023-02-15T13:45:03;4.30;99.90
16958;DHT22;8595;52.542;11.974;2023-02-15T13:47:36;4.30;99.90
16958;DHT22;8595;52.542;11.974;2023-02-15T13:50:19;4.30;99.90
16958;DHT22;8595;52.542;11.974;2023-02-15T13:52:56;4.40;99.90
16958;DHT22;8595;52.542;11.974;2023-02-15T13:55:34;4.40;99.90
16958;DHT22;8595;52.542;11.974;2023-02-15T14:01:08;4.50;99.90
16958;DHT22;8595;52.542;11.974;2023-02-15T14:03:50;4.50;99.90
16958;DHT22;8595;52.542;11.974;2023-02-15T14:06:32;4.60;99.90
16958;DHT22;8595;52.542;11.974;2023-02-15T14:09:11;4.60;99.90
16958;DHT22;8595;52.542;11.974;2023-02-15T14:11:50;4.60;99.90
16958;DHT22;8595;52.542;11.974;2023-02-15T14:14:41;4.60;99.90
16958;DHT22;8595;52.542;11.974;2023-02-15T14:17:20;4.70;99.90
16958;DHT22;8595;52.542;11.974;2023-02-15T14:19:52;4.80;99.90
16958;DHT22;8595;52.542;11.974;2023-02-15T14:22:27;4.60;99.90
16958;DHT22;8595;52.542;11.974;2023-02-15T14:25:05;4.50;99.90
16958;DHT22;8595;52.542;11.974;2023-02-15T14:27:52;4.50;99.90
16958;DHT22;8595;52.542;11.974;2023-02-15T14:30:24;4.50;99.90
16958;DHT22;8595;52.542;11.974;2023-02-15T14:32:54;4.50;99.90
16958;DHT22;8595;52.542;11.974;2023-02-15T14:35:24;4.60;99.90
16958;DHT22;8595;52.542;11.974;2023-02-15T14:37:57;4.50;99.90
16958;DHT22;8595;52.542;11.974;2023-02-15T14:40:33;4.40;99.90
16958;DHT22;8595;52.542;11.974;2023-02-15T14:43:31;4.30;99.90
16958;DHT22;8595;52.542;11.974;2023-02-15T14:46:04;4.40;99.90
16958;DHT22;8595;52.542;11.974;2023-02-15T14:48:39;4.50;99.90
16958;DHT22;8595;52.542;11.974;2023-02-15T14:51:09;4.60;99.90
16958;DHT22;8595;52.542;11.974;2023-02-15T14:53:38;4.50;99.90
16958;DHT22;8595;52.542;11.974;2023-02-15T14:56:17;4.50;99.90
16958;DHT22;8595;52.542;11.974;2023-02-15T14:59:19;4.50;99.90
16958;DHT22;8595;52.542;11.974;2023-02-15T15:01:55;4.60;99.90
16958;DHT22;8595;52.542;11.974;2023-02-15T15:04:27;4.60;99.90
16958;DHT22;8595;52.542;11.974;2023-02-15T15:07:02;4.50;99.90
16958;DHT22;8595;52.542;11.974;2023-02-15T15:09:30;4.50;99.90
16958;DHT22;8595;52.542;11.974;2023-02-15T15:15:00;4.80;99.90
16958;DHT22;8595;52.542;11.974;2023-02-15T15:17:52;4.80;99.90
16958;DHT22;8595;52.542;11.974;2023-02-15T15:20:38;4.70;99.90
16958;DHT22;8595;52.542;11.974;2023-02-15T15:23:43;4.60;99.90
16958;DHT22;8595;52.542;11.974;2023-02-15T15:26:29;4.70;99.90
16958;DHT22;8595;52.542;11.974;2023-02-15T15:29:00;4.60;99.90
16958;DHT22;8595;52.542;11.974;2023-02-15T15:31:48;4.60;99.90
16958;DHT22;8595;52.542;11.974;2023-02-15T15:37:23;4.80;99.90
16958;DHT22;8595;52.542;11.974;2023-02-15T15:40:25;4.70;99.90
16958;DHT22;8595;52.542;11.974;2023-02-15T15:46:23;4.70;99.90
16958;DHT22;8595;52.542;11.974;2023-02-15T15:49:01;4.60;99.90
16958;DHT22;8595;52.542;11.974;2023-02-15T15:51:31;4.60;99.90
16958;DHT22;8595;52.542;11.974;2023-02-15T15:54:00;4.50;99.90
16958;DHT22;8595;52.542;11.974;2023-02-15T15:56:31;4.50;99.90
16958;DHT22;8595;52.542;11.974;2023-02-15T15:59:01;4.50;99.90
16958;DHT22;8595;52.542;11.974;2023-02-15T16:01:30;4.40;99.90
16958;DHT22;8595;52.542;11.974;2023-02-15T16:03:59;4.30;99.90
16958;DHT22;8595;52.542;11.974;2023-02-15T16:06:31;4.20;99.90
16958;DHT22;8595;52.542;11.974;2023-02-15T16:09:10;4.20;99.90
16958;DHT22;8595;52.542;11.974;2023-02-15T16:11:38;4.10;99.90
16958;DHT22;8595;52.542;11.974;2023-02-15T16:14:11;4.00;99.90
16958;DHT22;8595;52.542;11.974;2023-02-15T16:16:39;4.00;99.90
16958;DHT22;8595;52.542;11.974;2023-02-15T16:19:20;3.90;99.90
16958;DHT22;8595;52.542;11.974;2023-02-15T16:21:49;3.90;99.90
16958;DHT22;8595;52.542;11.974;2023-02-15T16:24:25;3.80;99.90
16958;DHT22;8595;52.542;11.974;2023-02-15T16:29:50;3.70;99.90
16958;DHT22;8595;52.542;11.974;2023-02-15T16:32:18;3.70;99.90
16958;DHT22;8595;52.542;11.974;2023-02-15T16:34:57;3.60;99.90
16958;DHT22;8595;52.542;11.974;2023-02-15T16:37:26;3.60;99.90